Time;durP1;ratioP1;P1;durP2;ratioP2;P2;SDS_P1;SDS_P2;PMS_P1;PMS_P2;Temp;Humidity;BMP_temperature;BMP_pressure;BME280_temperature;BME280_humidity;BME280_pressure;Samples;Min_cycle;Max_cycle;Signal;HPM_P1;HPM_P2
2023/10/06 00:00:53;;;;;;;5.55;3.00;;;18.60;98.00;;;;;;5052635;28;20471;-35
2023/10/06 00:03:20;;;;;;;5.80;2.88;;;18.60;98.00;;;;;;5052567;28;20045;-37
2023/10/06 00:05:49;;;;;;;4.93;2.55;;;18.60;98.00;;;;;;5052428;28;20059;-37
2023/10/06 00:08:17;;;;;;;6.18;3.00;;;18.60;98.00;;;;;;5052406;28;20021;-39
2023/10/06 00:10:54;;;;;;;4.00;2.40;;;18.60;98.00;;;;;;5052520;28;20104;-40
2023/10/06 00:13:28;;;;;;;4.82;2.55;;;18.60;97.90;;;;;;5052538;28;20433;-38
2023/10/06 00:15:55;;;;;;;5.75;3.28;;;18.60;97.90;;;;;;5052265;28;20035;-42
2023/10/06 00:18:23;;;;;;;5.55;3.03;;;18.60;97.90;;;;;;5052352;28;20063;-42
2023/10/06 00:20:50;;;;;;;4.15;2.47;;;18.50;97.90;;;;;;5052174;28;20119;-40
2023/10/06 00:23:21;;;;;;;5.80;2.80;;;18.60;97.90;;;;;;5052169;28;20017;-39
2023/10/06 00:25:51;;;;;;;5.57;3.10;;;18.50;97.90;;;;;;5052058;28;20425;-37
2023/10/06 00:28:20;;;;;;;4.63;2.50;;;18.50;97.80;;;;;;5051986;28;20482;-35
2023/10/06 00:31:06;;;;;;;5.20;2.60;;;18.50;97.80;;;;;;5052412;28;20036;-40
2023/10/06 00:33:37;;;;;;;6.82;3.10;;;18.50;97.80;;;;;;5050865;28;20112;-39
2023/10/06 00:36:28;;;;;;;4.88;2.50;;;18.50;97.80;;;;;;5052026;28;20053;-35
2023/10/06 00:38:55;;;;;;;4.18;2.55;;;18.50;97.80;;;;;;5052161;28;20063;-35
2023/10/06 00:41:21;;;;;;;4.53;2.72;;;18.50;97.80;;;;;;5051831;28;20501;-42
2023/10/06 00:43:50;;;;;;;4.95;2.50;;;18.50;97.70;;;;;;5051907;28;20056;-38
2023/10/06 00:46:18;;;;;;;5.55;2.95;;;18.50;97.70;;;;;;5051597;28;20478;-42
2023/10/06 00:48:56;;;;;;;4.13;2.40;;;18.50;97.70;;;;;;5051780;28;20020;-37
2023/10/06 00:51:25;;;;;;;4.80;2.90;;;18.50;97.70;;;;;;5051948;28;20036;-39
2023/10/06 00:53:52;;;;;;;5.55;2.72;;;18.50;97.70;;;;;;5051731;28;20435;-35
2023/10/06 00:56:25;;;;;;;5.35;2.70;;;18.50;97.70;;;;;;5051494;28;20031;-38
2023/10/06 00:58:51;;;;;;;4.80;2.72;;;18.40;97.60;;;;;;5051630;28;20027;-37
2023/10/06 01:01:17;;;;;;;5.80;2.80;;;18.50;97.70;;;;;;5051561;28;20104;-37
2023/10/06 01:04:10;;;;;;;5.32;2.72;;;18.50;97.60;;;;;;5051437;28;20100;-39
2023/10/06 01:06:38;;;;;;;5.40;2.85;;;18.50;97.60;;;;;;5050903;28;20021;-42
2023/10/06 01:09:12;;;;;;;3.95;2.67;;;18.50;97.50;;;;;;5051443;28;20463;-38
2023/10/06 01:11:51;;;;;;;5.47;2.85;;;18.50;97.60;;;;;;5051487;28;20422;-43
2023/10/06 01:14:25;;;;;;;4.70;2.22;;;18.40;97.50;;;;;;5051433;28;20025;-37
2023/10/06 01:16:51;;;;;;;3.78;2.17;;;18.40;97.50;;;;;;5051559;28;20379;-38
2023/10/06 01:19:26;;;;;;;5.18;2.70;;;18.50;97.50;;;;;;5051168;28;20029;-38
2023/10/06 01:21:55;;;;;;;5.63;2.85;;;18.40;97.50;;;;;;5051310;28;20060;-42
2023/10/06 01:24:25;;;;;;;5.53;2.75;;;18.40;97.50;;;;;;5051293;28;20025;-45
2023/10/06 01:27:06;;;;;;;4.72;3.10;;;18.40;97.50;;;;;;5051193;28;20017;-41
2023/10/06 01:29:32;;;;;;;5.40;2.90;;;18.40;97.50;;;;;;5051210;28;20025;-41
2023/10/06 01:32:03;;;;;;;3.80;2.50;;;18.40;97.50;;;;;;5051200;28;20021;-41
2023/10/06 01:34:34;;;;;;;5.68;2.88;;;18.40;97.40;;;;;;5051608;28;20086;-42
2023/10/06 01:37:03;;;;;;;4.53;2.40;;;18.40;97.40;;;;;;5050951;28;20029;-36
2023/10/06 01:39:31;;;;;;;6.28;2.55;;;18.40;97.50;;;;;;5051179;28;20032;-37
2023/10/06 01:41:57;;;;;;;4.80;2.67;;;18.40;97.40;;;;;;5049790;28;20025;-38
2023/10/06 01:44:23;;;;;;;5.82;2.53;;;18.40;97.40;;;;;;5051121;28;20043;-37
2023/10/06 01:46:53;;;;;;;4.63;2.22;;;18.40;97.70;;;;;;5050980;28;20029;-45
2023/10/06 01:49:21;;;;;;;4.65;3.03;;;18.40;97.40;;;;;;5050893;28;20071;-41
2023/10/06 01:51:50;;;;;;;5.53;2.80;;;18.40;97.40;;;;;;5051197;28;20355;-36
2023/10/06 01:54:19;;;;;;;4.82;3.10;;;18.40;97.30;;;;;;5051055;28;20390;-42
2023/10/06 01:56:46;;;;;;;5.10;2.72;;;18.40;97.30;;;;;;5051056;28;20319;-42
2023/10/06 01:59:14;;;;;;;5.80;2.85;;;18.40;97.30;;;;;;5051127;28;20032;-36
2023/10/06 02:01:41;;;;;;;4.38;2.72;;;18.40;97.30;;;;;;5052042;28;20021;-38
2023/10/06 02:04:10;;;;;;;4.88;2.50;;;18.40;97.30;;;;;;5050906;28;20025;-38
2023/10/06 02:06:37;;;;;;;4.75;2.75;;;18.30;97.60;;;;;;5050736;28;20024;-37
2023/10/06 02:09:05;;;;;;;4.70;2.72;;;18.30;97.20;;;;;;5050830;28;20027;-39
2023/10/06 02:11:32;;;;;;;4.95;2.78;;;18.40;97.20;;;;;;5050861;28;20491;-42
2023/10/06 02:13:58;;;;;;;5.22;2.42;;;18.30;97.20;;;;;;5050786;28;20025;-39
2023/10/06 02:16:26;;;;;;;3.83;2.25;;;18.30;97.20;;;;;;5050509;28;20029;-38
2023/10/06 02:18:54;;;;;;;4.35;2.40;;;18.30;97.20;;;;;;5051121;28;20032;-39
2023/10/06 02:21:24;;;;;;;4.75;2.65;;;18.30;97.20;;;;;;5054498;28;20052;-39
2023/10/06 02:23:51;;;;;;;5.25;2.70;;;18.30;97.20;;;;;;5054555;28;20031;-35
2023/10/06 02:26:17;;;;;;;5.07;2.63;;;18.30;97.10;;;;;;5054398;28;20025;-37
2023/10/06 02:28:48;;;;;;;5.22;2.67;;;18.30;97.10;;;;;;5054432;28;20086;-38
2023/10/06 02:31:14;;;;;;;3.53;2.20;;;18.30;97.10;;;;;;5054437;28;20143;-38
2023/10/06 02:33:41;;;;;;;5.25;2.88;;;18.30;97.10;;;;;;5054435;28;20044;-37
2023/10/06 02:36:29;;;;;;;4.45;2.40;;;18.30;97.10;;;;;;5054101;28;20024;-37
2023/10/06 02:38:53;;;;;;;4.28;2.42;;;18.30;97.10;;;;;;5054023;28;20047;-36
2023/10/06 02:41:21;;;;;;;4.05;2.33;;;18.30;97.10;;;;;;5054094;28;20432;-38
2023/10/06 02:43:51;;;;;;;4.50;2.50;;;18.30;97.00;;;;;;5054152;28;20040;-39
2023/10/06 02:46:22;;;;;;;4.03;2.65;;;18.20;97.00;;;;;;5053915;28;20032;-39
2023/10/06 02:48:49;;;;;;;3.67;2.40;;;18.20;97.00;;;;;;5054216;28;20021;-39
2023/10/06 02:51:29;;;;;;;4.72;2.75;;;18.20;97.00;;;;;;5053978;28;20040;-38
2023/10/06 02:56:46;;;;;;;5.15;2.60;;;18.20;97.00;;;;;;5053991;28;20521;-39
2023/10/06 02:59:34;;;;;;;4.28;2.60;;;18.20;97.00;;;;;;5053850;28;20443;-39
2023/10/06 03:02:06;;;;;;;4.13;2.20;;;18.20;96.90;;;;;;5053849;28;20482;-39
2023/10/06 03:04:36;;;;;;;3.97;2.35;;;18.20;96.90;;;;;;5053685;28;20024;-38
2023/10/06 03:07:05;;;;;;;3.95;2.65;;;18.20;96.90;;;;;;5053712;28;20025;-39
2023/10/06 03:09:37;;;;;;;4.28;2.63;;;18.20;96.90;;;;;;5053637;28;20017;-39
2023/10/06 03:12:15;;;;;;;4.00;2.40;;;18.20;96.90;;;;;;5053744;28;20029;-36
2023/10/06 03:14:42;;;;;;;4.97;2.38;;;18.20;96.90;;;;;;5053468;28;20029;-36
2023/10/06 03:17:09;;;;;;;4.05;2.50;;;18.20;96.80;;;;;;5053422;28;20029;-39
2023/10/06 03:19:41;;;;;;;4.10;2.50;;;18.20;96.80;;;;;;5053552;28;20059;-40
2023/10/06 03:22:09;;;;;;;5.32;2.50;;;18.20;96.80;;;;;;5053330;28;20486;-37
2023/10/06 03:24:42;;;;;;;6.13;2.67;;;18.10;96.80;;;;;;5051981;28;20033;-37
2023/10/06 03:27:18;;;;;;;3.38;2.17;;;18.10;96.80;;;;;;5053309;28;20048;-38
2023/10/06 03:29:51;;;;;;;4.88;2.40;;;18.20;96.80;;;;;;5052956;28;20017;-37
2023/10/06 03:32:27;;;;;;;3.67;2.22;;;18.20;96.80;;;;;;5053516;28;20033;-36
2023/10/06 03:34:55;;;;;;;4.80;2.78;;;18.10;96.80;;;;;;5053117;28;20034;-42
2023/10/06 03:37:35;;;;;;;4.40;2.72;;;18.10;96.80;;;;;;5053020;28;20025;-36
2023/10/06 03:40:19;;;;;;;5.32;2.80;;;18.10;96.80;;;;;;5053193;28;20027;-37
2023/10/06 03:42:45;;;;;;;5.65;2.70;;;18.10;96.70;;;;;;5053057;28;20501;-42
2023/10/06 03:45:23;;;;;;;4.05;2.30;;;18.10;96.70;;;;;;5053048;28;20040;-38
2023/10/06 03:47:49;;;;;;;4.65;2.47;;;18.10;96.70;;;;;;5052797;28;20509;-37
2023/10/06 03:50:17;;;;;;;7.13;2.70;;;18.10;96.70;;;;;;5052821;28;20051;-37
2023/10/06 03:52:43;;;;;;;5.75;2.20;;;18.10;96.70;;;;;;5053036;28;20150;-38
2023/10/06 03:55:12;;;;;;;4.05;2.38;;;18.10;96.70;;;;;;5052716;28;20025;-38
2023/10/06 03:57:37;;;;;;;5.35;2.38;;;18.10;96.70;;;;;;5052610;28;20490;-39
2023/10/06 04:00:05;;;;;;;4.88;2.55;;;18.10;96.70;;;;;;5052770;28;20021;-38
2023/10/06 04:02:38;;;;;;;4.32;2.45;;;18.10;96.70;;;;;;5052545;28;20032;-39
2023/10/06 04:05:07;;;;;;;4.63;2.28;;;18.10;97.00;;;;;;5052620;28;20098;-41
2023/10/06 04:07:33;;;;;;;4.38;2.20;;;18.10;96.60;;;;;;5052485;28;20052;-40
2023/10/06 04:10:03;;;;;;;6.30;2.70;;;18.10;96.60;;;;;;5052596;28;20114;-36
2023/10/06 04:12:29;;;;;;;4.70;2.30;;;18.10;96.60;;;;;;5052539;28;20067;-37
2023/10/06 04:14:54;;;;;;;5.40;2.90;;;18.10;96.60;;;;;;5052461;28;20032;-42
2023/10/06 04:17:21;;;;;;;4.47;2.72;;;18.10;96.60;;;;;;5052156;28;20439;-39
2023/10/06 04:19:48;;;;;;;3.38;1.98;;;18.10;96.60;;;;;;5052291;28;20029;-40
2023/10/06 04:22:14;;;;;;;4.28;2.65;;;18.00;96.60;;;;;;5052241;28;20075;-35
2023/10/06 04:24:40;;;;;;;4.25;2.42;;;18.10;96.60;;;;;;5052194;28;20021;-38
2023/10/06 04:27:05;;;;;;;3.38;2.15;;;18.00;96.90;;;;;;5052179;28;20098;-40
2023/10/06 04:29:35;;;;;;;7.03;2.38;;;18.10;96.60;;;;;;5050783;28;20086;-40
2023/10/06 04:32:01;;;;;;;4.78;2.50;;;18.00;96.90;;;;;;5051930;28;20470;-36
2023/10/06 04:34:36;;;;;;;3.67;2.40;;;18.00;96.60;;;;;;5052050;28;20041;-35
2023/10/06 04:37:03;;;;;;;4.35;2.35;;;18.00;96.50;;;;;;5051993;28;20024;-42
2023/10/06 04:39:29;;;;;;;4.18;2.50;;;18.00;96.50;;;;;;5051962;28;20033;-42
2023/10/06 04:41:59;;;;;;;4.75;2.55;;;18.00;96.50;;;;;;5051100;28;20259;-35
2023/10/06 04:44:25;;;;;;;3.50;2.40;;;18.00;96.50;;;;;;5051803;28;20025;-40
2023/10/06 04:46:52;;;;;;;4.20;2.40;;;18.00;96.50;;;;;;5051743;28;20078;-36
2023/10/06 04:49:17;;;;;;;4.00;2.80;;;18.00;96.50;;;;;;5051799;28;20474;-35
2023/10/06 04:51:43;;;;;;;5.22;2.53;;;18.00;96.40;;;;;;5051807;28;20099;-40
2023/10/06 04:54:09;;;;;;;3.45;2.13;;;18.00;96.40;;;;;;5051832;28;20024;-42
2023/10/06 04:56:34;;;;;;;3.38;2.17;;;18.00;96.80;;;;;;5051979;28;20029;-46
2023/10/06 04:59:00;;;;;;;3.70;2.33;;;18.00;96.40;;;;;;5051499;28;20502;-44
2023/10/06 05:01:30;;;;;;;3.22;2.33;;;18.00;96.40;;;;;;5050286;28;20383;-43
2023/10/06 05:03:56;;;;;;;4.72;2.47;;;18.00;96.40;;;;;;5050292;28;20032;-35
2023/10/06 05:06:21;;;;;;;3.50;2.13;;;18.00;96.40;;;;;;5051376;28;20021;-37
2023/10/06 05:08:47;;;;;;;3.83;2.40;;;18.00;96.40;;;;;;5051404;28;20024;-44
2023/10/06 05:11:17;;;;;;;3.47;2.33;;;;;;;;;;5051505;28;20029;-36
2023/10/06 05:13:43;;;;;;;3.95;2.67;;;17.90;96.10;;;;;;5050018;28;20532;-38
2023/10/06 05:16:11;;;;;;;4.10;2.30;;;18.00;96.40;;;;;;5051206;28;20029;-39
2023/10/06 05:18:38;;;;;;;3.35;2.30;;;17.90;96.30;;;;;;5051340;28;20025;-38
2023/10/06 05:21:06;;;;;;;3.95;2.05;;;17.90;96.30;;;;;;5051316;28;20461;-42
2023/10/06 05:23:34;;;;;;;5.00;2.40;;;17.90;96.30;;;;;;5051428;28;20032;-37
2023/10/06 05:26:07;;;;;;;4.35;2.35;;;17.90;96.60;;;;;;5051022;28;20029;-44
2023/10/06 05:28:36;;;;;;;4.77;2.40;;;17.90;96.30;;;;;;5051303;28;20044;-46
2023/10/06 05:31:02;;;;;;;4.30;1.98;;;17.90;96.30;;;;;;5051171;28;20060;-44
2023/10/06 05:33:27;;;;;;;4.20;2.40;;;17.90;96.30;;;;;;5051417;28;20053;-41
2023/10/06 05:35:53;;;;;;;3.85;2.15;;;17.90;96.30;;;;;;5051156;28;20025;-38
2023/10/06 05:38:19;;;;;;;4.72;2.33;;;17.90;96.30;;;;;;5052869;28;20175;-37
2023/10/06 05:40:49;;;;;;;7.07;3.55;;;17.90;96.30;;;;;;5054001;28;20040;-37
2023/10/06 05:43:19;;;;;;;4.18;2.63;;;17.50;92.40;;;;;;5054855;28;20021;-36
2023/10/06 05:45:51;;;;;;;4.47;2.65;;;16.60;93.70;;;;;;5050911;28;20017;-35
2023/10/06 05:48:21;;;;;;;6.20;2.80;;;16.30;94.80;;;;;;5051169;28;20028;-37
2023/10/06 05:50:48;;;;;;;4.57;2.80;;;16.30;95.20;;;;;;5051565;28;20477;-41
2023/10/06 05:53:22;;;;;;;5.65;2.80;;;16.40;95.30;;;;;;5051905;28;20021;-37
2023/10/06 05:55:49;;;;;;;7.43;3.28;;;16.30;93.40;;;;;;5055011;28;20029;-35
2023/10/06 05:58:19;;;;;;;7.78;3.30;;;16.20;93.60;;;;;;5055077;28;20029;-35
2023/10/06 06:00:51;;;;;;;8.30;3.10;;;15.50;94.80;;;;;;5054922;28;20410;-36
2023/10/06 06:03:23;;;;;;;6.88;3.03;;;15.20;95.60;;;;;;5055021;28;20037;-36
2023/10/06 06:05:52;;;;;;;7.30;2.25;;;15.20;96.00;;;;;;5054667;28;20021;-36
2023/10/06 06:08:18;;;;;;;5.57;2.95;;;15.30;96.20;;;;;;5054786;28;20044;-35
2023/10/06 06:10:45;;;;;;;5.35;2.60;;;15.40;96.20;;;;;;5055015;28;20100;-35
2023/10/06 06:13:13;;;;;;;6.47;2.50;;;15.50;96.30;;;;;;5054779;28;20031;-36
2023/10/06 06:15:39;;;;;;;6.75;2.60;;;15.70;96.30;;;;;;5054561;28;20024;-36
2023/10/06 06:18:05;;;;;;;5.07;2.75;;;15.80;96.30;;;;;;5054639;28;20035;-35
2023/10/06 06:20:31;;;;;;;4.63;2.60;;;15.90;96.20;;;;;;5054667;28;20041;-35
2023/10/06 06:23:02;;;;;;;4.30;2.45;;;16.00;96.20;;;;;;5054769;28;20082;-36
2023/10/06 06:25:29;;;;;;;6.43;2.83;;;16.10;96.20;;;;;;5055218;28;20104;-35
2023/10/06 06:27:55;;;;;;;5.90;2.97;;;16.20;96.20;;;;;;5054429;28;20026;-36
2023/10/06 06:30:23;;;;;;;6.93;3.15;;;16.30;96.20;;;;;;5054566;28;20096;-36
2023/10/06 06:32:50;;;;;;;5.78;2.60;;;16.40;96.10;;;;;;5054349;28;20552;-34
2023/10/06 06:35:22;;;;;;;5.32;2.65;;;16.40;96.10;;;;;;5054266;28;20055;-34
2023/10/06 06:37:51;;;;;;;7.30;2.70;;;16.50;96.10;;;;;;5054216;28;20023;-35
2023/10/06 06:40:20;;;;;;;7.28;2.75;;;16.60;96.10;;;;;;5054223;28;20437;-34
2023/10/06 06:42:51;;;;;;;4.75;2.65;;;16.60;96.10;;;;;;5054201;28;20029;-34
2023/10/06 06:45:17;;;;;;;5.90;2.35;;;16.70;96.10;;;;;;5053993;28;20027;-34
2023/10/06 06:47:43;;;;;;;5.47;2.60;;;16.70;96.10;;;;;;5053997;28;20096;-37
2023/10/06 06:50:15;;;;;;;5.40;2.75;;;16.80;96.10;;;;;;5054114;28;20017;-36
2023/10/06 06:52:48;;;;;;;4.43;2.50;;;16.80;96.10;;;;;;5054023;28;20503;-36
2023/10/06 06:55:14;;;;;;;6.05;2.72;;;16.90;96.10;;;;;;5053962;28;20494;-36
2023/10/06 06:57:44;;;;;;;4.50;2.42;;;17.00;96.10;;;;;;5053693;28;20062;-36
2023/10/06 07:00:17;;;;;;;5.63;1.92;;;17.00;96.10;;;;;;5053878;28;20031;-39
2023/10/06 07:02:47;;;;;;;3.85;2.38;;;17.00;96.00;;;;;;5053898;28;20540;-37
2023/10/06 07:05:14;;;;;;;5.28;2.78;;;17.10;96.00;;;;;;5053212;28;20021;-36
2023/10/06 07:07:42;;;;;;;4.53;2.45;;;17.10;96.00;;;;;;5053744;28;20036;-37
2023/10/06 07:10:12;;;;;;;4.40;2.40;;;17.20;96.10;;;;;;5054179;28;20056;-36
2023/10/06 07:12:37;;;;;;;5.00;2.30;;;17.20;96.10;;;;;;5053760;28;20268;-38
2023/10/06 07:15:03;;;;;;;4.72;2.42;;;17.20;96.10;;;;;;5053526;28;20037;-40
2023/10/06 07:17:30;;;;;;;4.00;2.25;;;17.20;96.00;;;;;;5053480;28;20040;-38
2023/10/06 07:20:00;;;;;;;4.57;2.50;;;17.30;96.00;;;;;;5052214;28;20044;-37
2023/10/06 07:22:31;;;;;;;3.92;2.42;;;17.30;96.00;;;;;;5053469;28;20025;-36
2023/10/06 07:24:57;;;;;;;4.18;2.17;;;17.40;96.10;;;;;;5053284;28;20028;-35
2023/10/06 07:27:23;;;;;;;4.57;2.38;;;17.40;96.10;;;;;;5053295;28;20082;-34
2023/10/06 07:29:52;;;;;;;6.32;2.47;;;17.40;96.10;;;;;;5053322;28;20048;-35
2023/10/06 07:32:18;;;;;;;4.03;2.22;;;17.40;96.10;;;;;;5053300;28;20021;-38
2023/10/06 07:34:44;;;;;;;4.07;2.03;;;17.40;96.10;;;;;;5053707;28;20044;-34
2023/10/06 07:37:11;;;;;;;3.13;1.80;;;17.50;96.10;;;;;;5053048;28;20115;-34
2023/10/06 07:39:37;;;;;;;4.07;2.22;;;17.50;96.10;;;;;;5053336;28;20032;-36
2023/10/06 07:42:06;;;;;;;5.75;2.65;;;17.50;96.10;;;;;;5053058;28;20024;-36
2023/10/06 07:44:33;;;;;;;6.65;2.85;;;17.60;96.10;;;;;;5052961;28;20025;-36
2023/10/06 07:47:00;;;;;;;8.65;4.18;;;17.60;96.50;;;;;;5053156;28;20029;-38
2023/10/06 07:49:27;;;;;;;7.88;3.75;;;17.30;98.00;;;;;;5052940;28;20364;-34
2023/10/06 07:51:55;;;;;;;7.95;4.03;;;17.10;98.20;;;;;;5052762;28;20116;-39
2023/10/06 07:54:23;;;;;;;13.73;4.13;;;17.10;98.20;;;;;;5053102;28;20036;-35
2023/10/06 07:56:49;;;;;;;9.27;3.38;;;17.20;98.10;;;;;;5052697;28;20025;-38
2023/10/06 07:59:14;;;;;;;7.47;3.45;;;17.30;97.90;;;;;;5052769;28;20036;-36
2023/10/06 08:01:40;;;;;;;9.35;3.35;;;17.40;97.70;;;;;;5052672;28;20025;-36
2023/10/06 08:04:07;;;;;;;6.20;2.60;;;17.50;97.60;;;;;;5052714;28;20039;-35
2023/10/06 08:06:33;;;;;;;9.73;3.45;;;17.60;97.40;;;;;;5052400;28;20105;-39
2023/10/06 08:08:59;;;;;;;7.07;3.38;;;17.70;97.30;;;;;;5052585;28;20124;-37
2023/10/06 08:11:25;;;;;;;6.95;3.30;;;17.80;97.20;;;;;;5052659;28;20032;-36
2023/10/06 08:13:52;;;;;;;6.93;2.80;;;17.90;97.20;;;;;;5052570;28;20107;-45
2023/10/06 08:16:18;;;;;;;6.32;3.00;;;18.00;97.10;;;;;;5052364;28;20021;-39
2023/10/06 08:18:45;;;;;;;6.20;2.78;;;18.10;97.10;;;;;;5052446;28;20040;-39
2023/10/06 08:21:11;;;;;;;5.93;2.90;;;18.10;97.00;;;;;;5052275;28;20322;-39
2023/10/06 08:23:37;;;;;;;6.68;3.03;;;18.20;97.00;;;;;;5052401;28;20049;-40
2023/10/06 08:26:07;;;;;;;7.60;3.55;;;18.20;96.90;;;;;;5052113;28;20025;-46
2023/10/06 08:28:33;;;;;;;4.85;2.75;;;18.30;96.90;;;;;;5052195;28;20346;-40
2023/10/06 08:31:02;;;;;;;4.75;2.85;;;18.30;96.80;;;;;;5052186;28;20069;-36
2023/10/06 08:33:28;;;;;;;4.47;2.97;;;18.40;96.80;;;;;;5052056;28;20021;-36
2023/10/06 08:36:01;;;;;;;6.95;3.30;;;18.40;96.80;;;;;;5052338;28;20032;-36
2023/10/06 08:38:27;;;;;;;5.53;2.70;;;18.40;96.70;;;;;;5051994;28;20033;-35
2023/10/06 08:40:58;;;;;;;5.97;3.10;;;18.50;96.70;;;;;;5051912;28;20037;-38
2023/10/06 08:43:27;;;;;;;8.32;3.42;;;18.50;96.60;;;;;;5051947;28;20021;-39
2023/10/06 08:45:55;;;;;;;4.95;2.53;;;18.60;96.60;;;;;;5051793;28;20520;-38
2023/10/06 08:48:25;;;;;;;5.35;3.00;;;18.60;96.60;;;;;;5051728;28;20989;-37
2023/10/06 08:50:54;;;;;;;6.53;2.78;;;18.70;96.60;;;;;;5052006;28;20448;-38
2023/10/06 08:53:23;;;;;;;6.47;3.13;;;18.70;96.60;;;;;;5051844;28;20038;-43
2023/10/06 08:55:49;;;;;;;14.73;5.63;;;18.70;96.50;;;;;;5051515;28;20045;-37
2023/10/06 08:58:14;;;;;;;17.40;5.10;;;18.70;98.10;;;;;;5051640;28;20122;-37
2023/10/06 09:00:43;;;;;;;11.20;5.00;;;18.50;99.00;;;;;;5051432;28;20367;-38
2023/10/06 09:03:14;;;;;;;12.48;5.00;;;18.40;99.30;;;;;;5051774;28;20021;-37
2023/10/06 09:05:40;;;;;;;12.30;4.72;;;18.30;99.20;;;;;;5051529;28;20025;-37
2023/10/06 09:08:10;;;;;;;11.80;4.40;;;18.20;99.10;;;;;;5051701;28;20471;-37
2023/10/06 09:10:42;;;;;;;8.93;4.20;;;18.30;99.10;;;;;;5051722;28;20029;-40
2023/10/06 09:13:12;;;;;;;8.30;3.63;;;18.30;99.00;;;;;;5053701;28;20056;-38
2023/10/06 09:15:40;;;;;;;9.23;4.00;;;18.40;98.90;;;;;;5051835;28;20021;-37
2023/10/06 09:18:28;;;;;;;10.57;3.88;;;18.40;98.80;;;;;;5051785;28;20017;-37
2023/10/06 09:20:56;;;;;;;11.63;4.25;;;18.40;98.70;;;;;;5051288;28;20114;-34
2023/10/06 09:23:36;;;;;;;10.60;3.50;;;18.40;98.70;;;;;;5051363;28;20028;-34
2023/10/06 09:26:04;;;;;;;8.90;3.90;;;18.40;98.60;;;;;;5051158;28;20052;-34
2023/10/06 09:28:31;;;;;;;6.70;3.22;;;18.40;98.90;;;;;;5051002;28;20027;-34
2023/10/06 09:31:01;;;;;;;8.82;3.45;;;18.50;98.60;;;;;;5051200;28;20478;-34
2023/10/06 09:33:48;;;;;;;9.85;3.60;;;18.50;98.50;;;;;;5051653;28;20492;-37
2023/10/06 09:36:21;;;;;;;8.20;3.78;;;18.50;98.40;;;;;;5050909;28;20037;-35
2023/10/06 09:38:47;;;;;;;7.60;3.70;;;18.50;98.40;;;;;;5051113;28;20029;-34
2023/10/06 09:41:24;;;;;;;7.50;3.33;;;18.50;98.40;;;;;;5051016;28;20025;-36
2023/10/06 09:43:53;;;;;;;9.68;3.25;;;18.50;98.40;;;;;;5051583;28;20493;-36
2023/10/06 09:46:19;;;;;;;7.28;3.55;;;18.60;98.30;;;;;;5050954;28;20033;-36
2023/10/06 09:48:50;;;;;;;7.00;3.22;;;18.60;98.30;;;;;;5051012;28;20033;-36
2023/10/06 09:51:19;;;;;;;6.93;3.40;;;18.60;98.30;;;;;;5051150;28;20082;-37
2023/10/06 09:53:47;;;;;;;6.15;3.40;;;18.60;98.30;;;;;;5051186;28;20052;-38
2023/10/06 09:56:13;;;;;;;8.57;3.35;;;18.60;98.20;;;;;;5050922;28;20494;-36
2023/10/06 09:58:48;;;;;;;7.03;3.45;;;18.60;98.20;;;;;;5051007;28;20440;-36
2023/10/06 10:01:15;;;;;;;8.00;3.80;;;18.70;98.20;;;;;;5050903;28;20025;-38
2023/10/06 10:03:41;;;;;;;10.02;4.63;;;18.70;99.20;;;;;;5051132;28;20028;-37
2023/10/06 10:06:08;;;;;;;15.82;4.90;;;18.60;99.90;;;;;;5050637;28;20025;-37
2023/10/06 10:08:41;;;;;;;9.27;4.40;;;18.60;99.90;;;;;;5050824;28;20116;-33
2023/10/06 10:11:15;;;;;;;14.05;4.57;;;18.60;99.90;;;;;;5050855;28;20423;-34
2023/10/06 10:13:53;;;;;;;9.93;3.97;;;18.70;99.90;;;;;;5050748;28;20017;-34
2023/10/06 10:16:40;;;;;;;8.43;4.13;;;18.70;99.90;;;;;;5050570;28;20070;-34
2023/10/06 10:19:13;;;;;;;11.98;3.97;;;18.70;99.70;;;;;;5050668;28;20514;-33
2023/10/06 10:21:41;;;;;;;10.60;4.28;;;18.80;99.60;;;;;;5050726;28;20029;-34
2023/10/06 10:24:09;;;;;;;13.18;4.00;;;18.80;99.40;;;;;;5050544;28;20433;-34
2023/10/06 10:26:39;;;;;;;9.48;4.20;;;18.80;99.40;;;;;;5050875;28;20060;-34
2023/10/06 10:29:17;;;;;;;6.80;3.53;;;18.90;99.30;;;;;;5051146;28;20433;-34
2023/10/06 10:31:44;;;;;;;8.55;4.05;;;18.90;99.30;;;;;;5050839;28;20390;-33
2023/10/06 10:34:22;;;;;;;7.60;3.78;;;18.90;99.20;;;;;;5050936;28;20021;-34
2023/10/06 10:36:54;;;;;;;8.77;3.80;;;18.90;99.10;;;;;;5050770;28;20445;-33
2023/10/06 10:39:22;;;;;;;6.22;3.35;;;19.00;99.10;;;;;;5050915;28;20100;-33
2023/10/06 10:41:47;;;;;;;6.07;3.58;;;19.00;99.10;;;;;;5053773;28;20024;-35
2023/10/06 10:44:17;;;;;;;7.05;3.45;;;19.00;99.00;;;;;;5054332;28;20025;-35
2023/10/06 10:46:52;;;;;;;6.00;2.75;;;19.00;99.00;;;;;;5054290;28;20067;-35
2023/10/06 10:49:19;;;;;;;7.45;3.55;;;19.00;99.00;;;;;;5054053;28;20478;-35
2023/10/06 10:51:53;;;;;;;7.13;3.58;;;19.00;99.00;;;;;;5054191;28;20056;-36
2023/10/06 10:54:23;;;;;;;6.53;3.40;;;19.00;98.90;;;;;;5054179;28;20505;-42
2023/10/06 10:56:51;;;;;;;8.35;3.65;;;19.10;98.90;;;;;;5054155;28;20062;-34
2023/10/06 10:59:18;;;;;;;5.32;2.88;;;19.10;98.90;;;;;;5053944;28;20509;-35
2023/10/06 11:01:51;;;;;;;6.97;3.05;;;19.10;98.90;;;;;;5053956;28;20143;-34
2023/10/06 11:04:35;;;;;;;6.47;3.22;;;19.10;98.90;;;;;;5054022;28;20017;-35
2023/10/06 11:07:11;;;;;;;5.95;3.42;;;19.10;98.80;;;;;;5053853;28;20048;-35
2023/10/06 11:09:47;;;;;;;8.05;3.40;;;19.10;98.80;;;;;;5053768;28;20087;-35
2023/10/06 11:12:30;;;;;;;6.65;3.30;;;19.20;98.80;;;;;;5053753;28;20470;-35
2023/10/06 11:15:13;;;;;;;6.60;3.28;;;19.20;98.80;;;;;;5053685;28;20069;-36
2023/10/06 11:17:43;;;;;;;7.22;3.40;;;19.20;98.80;;;;;;5053527;28;20044;-35
2023/10/06 11:20:15;;;;;;;6.28;3.15;;;19.20;98.80;;;;;;5053446;28;20086;-35
2023/10/06 11:22:54;;;;;;;8.18;3.55;;;19.20;98.80;;;;;;5053480;28;20439;-35
2023/10/06 11:25:29;;;;;;;4.80;2.88;;;19.20;98.80;;;;;;5053444;28;20518;-34
2023/10/06 11:28:08;;;;;;;6.28;3.33;;;19.20;98.80;;;;;;5053338;28;20104;-35
2023/10/06 11:30:38;;;;;;;4.75;3.03;;;19.20;98.80;;;;;;5053378;28;20024;-35
2023/10/06 11:33:06;;;;;;;6.07;3.22;;;19.20;98.80;;;;;;5053379;28;20025;-33
2023/10/06 11:35:35;;;;;;;6.20;3.22;;;19.30;98.80;;;;;;5053189;28;20021;-33
2023/10/06 11:38:11;;;;;;;4.95;2.67;;;19.30;99.10;;;;;;5053115;28;20467;-34
2023/10/06 11:40:37;;;;;;;5.70;3.05;;;19.30;98.70;;;;;;5053227;28;20029;-36
2023/10/06 11:43:13;;;;;;;6.70;3.60;;;19.30;98.70;;;;;;5053100;28;20025;-37
2023/10/06 11:45:41;;;;;;;4.88;3.08;;;19.30;98.70;;;;;;5053321;28;20433;-36
2023/10/06 11:48:31;;;;;;;8.05;3.55;;;19.30;98.70;;;;;;5052979;28;20064;-33
2023/10/06 11:51:12;;;;;;;5.38;3.50;;;19.30;98.70;;;;;;5052725;28;20435;-33
2023/10/06 11:53:40;;;;;;;6.25;2.92;;;19.30;98.70;;;;;;5052842;28;20025;-33
2023/10/06 11:56:10;;;;;;;5.57;3.45;;;19.30;98.60;;;;;;5052925;28;20102;-34
2023/10/06 11:58:37;;;;;;;5.38;3.22;;;19.40;98.60;;;;;;5052758;28;20035;-34
2023/10/06 12:01:03;;;;;;;6.88;3.50;;;19.40;98.60;;;;;;5051594;28;20021;-33
2023/10/06 12:03:42;;;;;;;7.07;3.20;;;19.40;98.60;;;;;;5052823;28;20021;-38
2023/10/06 12:06:14;;;;;;;6.53;3.65;;;19.40;98.60;;;;;;5052716;28;20036;-39
2023/10/06 12:08:52;;;;;;;6.38;3.60;;;19.40;98.60;;;;;;5052813;28;20021;-40
2023/10/06 12:11:19;;;;;;;6.05;3.42;;;19.40;98.60;;;;;;5052668;28;20378;-36
2023/10/06 12:13:45;;;;;;;7.10;3.22;;;19.40;98.60;;;;;;5052550;28;20033;-42
2023/10/06 12:16:17;;;;;;;5.72;3.40;;;19.40;98.60;;;;;;5051013;28;20145;-40
2023/10/06 12:18:44;;;;;;;5.78;3.33;;;19.40;98.50;;;;;;5052864;28;20040;-39
2023/10/06 12:21:14;;;;;;;6.55;3.30;;;19.40;98.90;;;;;;5052332;28;20035;-39
2023/10/06 12:23:40;;;;;;;6.15;3.38;;;19.40;98.20;;;;;;5052430;28;20498;-36
2023/10/06 12:26:06;;;;;;;5.85;3.50;;;19.50;98.50;;;;;;5052103;28;20021;-40
2023/10/06 12:28:32;;;;;;;6.43;3.58;;;19.50;98.50;;;;;;5052275;28;20032;-38
2023/10/06 12:30:58;;;;;;;5.97;3.42;;;19.50;98.50;;;;;;5052251;28;20036;-37
2023/10/06 12:33:23;;;;;;;5.72;3.50;;;19.50;98.50;;;;;;5052167;28;20034;-39
2023/10/06 12:35:52;;;;;;;6.07;3.30;;;19.40;98.40;;;;;;5051931;28;20461;-40
2023/10/06 12:38:22;;;;;;;6.43;3.58;;;19.50;98.40;;;;;;5051984;28;20083;-36
2023/10/06 12:40:48;;;;;;;6.38;3.53;;;19.50;98.40;;;;;;5052307;28;20040;-39
2023/10/06 12:43:16;;;;;;;6.25;3.42;;;19.50;98.40;;;;;;5051988;28;20021;-35
2023/10/06 12:45:42;;;;;;;4.97;3.05;;;19.50;98.40;;;;;;5051726;28;20050;-38
2023/10/06 12:48:07;;;;;;;5.53;3.33;;;19.50;98.40;;;;;;5053408;28;20025;-34
2023/10/06 12:50:43;;;;;;;5.35;3.42;;;19.50;98.70;;;;;;5056358;28;20077;-34
2023/10/06 12:53:12;;;;;;;6.72;3.17;;;19.50;98.40;;;;;;5056703;28;20074;-35
2023/10/06 12:55:44;;;;;;;4.80;3.00;;;19.50;98.40;;;;;;5053926;28;20493;-33
2023/10/06 12:58:11;;;;;;;6.00;3.40;;;19.50;98.40;;;;;;5051637;28;20391;-33
2023/10/06 13:00:40;;;;;;;6.80;3.85;;;19.50;98.40;;;;;;5051817;28;20419;-33